createdAt,value
2018-06-07T00:00:50.498Z,92.90
2018-06-07T00:03:20.788Z,92.80
2018-06-07T00:05:51.071Z,92.90
2018-06-07T00:08:21.384Z,93.50
2018-06-07T00:10:51.929Z,93.20
2018-06-07T00:13:22.237Z,93.00
2018-06-07T00:15:52.527Z,93.00
2018-06-07T00:18:22.859Z,93.20
2018-06-07T00:20:53.145Z,93.40
2018-06-07T00:23:23.445Z,93.60
2018-06-07T00:25:54.228Z,93.40
2018-06-07T00:30:54.437Z,93.50
2018-06-07T00:33:24.765Z,93.70
2018-06-07T00:35:55.076Z,93.30
2018-06-07T00:38:25.329Z,93.10
2018-06-07T00:40:55.655Z,93.00
2018-06-07T00:43:25.921Z,93.10
2018-06-07T00:45:56.218Z,93.00
2018-06-07T00:48:26.515Z,93.30
2018-06-07T00:50:56.825Z,93.40
2018-06-07T00:53:27.145Z,93.40
2018-06-07T00:55:57.409Z,93.40
2018-06-07T00:58:27.717Z,93.30
2018-06-07T01:00:58.014Z,93.40
2018-06-07T01:03:28.386Z,93.30
2018-06-07T01:05:58.666Z,93.50
2018-06-07T01:08:28.947Z,93.50
2018-06-07T01:10:59.163Z,93.60
2018-06-07T01:13:29.440Z,93.70
2018-06-07T01:15:59.734Z,93.60
2018-06-07T01:18:30.030Z,93.50
2018-06-07T01:21:00.305Z,93.60
2018-06-07T01:23:30.588Z,93.50
2018-06-07T01:26:01.692Z,93.40
2018-06-07T01:28:31.957Z,93.20
2018-06-07T01:31:07.396Z,93.30
2018-06-07T01:33:42.890Z,93.30
2018-06-07T01:36:13.209Z,93.10
2018-06-07T01:39:22.407Z,93.20
2018-06-07T01:41:52.724Z,93.20
2018-06-07T01:44:22.964Z,93.10
2018-06-07T01:46:53.260Z,93.10
2018-06-07T01:49:23.501Z,93.10
2018-06-07T01:51:53.824Z,93.00
2018-06-07T01:54:24.093Z,93.10
2018-06-07T01:56:54.348Z,93.10
2018-06-07T01:59:24.649Z,93.00
2018-06-07T02:01:54.905Z,93.00
2018-06-07T02:04:25.207Z,93.10
2018-06-07T02:06:55.832Z,93.10
2018-06-07T02:11:55.987Z,93.10
2018-06-07T02:14:26.272Z,93.30
2018-06-07T02:16:56.602Z,93.40
2018-06-07T02:19:26.920Z,93.50
2018-06-07T02:21:57.218Z,93.40
2018-06-07T02:24:27.516Z,93.00
2018-06-07T02:26:57.807Z,92.90
2018-06-07T02:29:28.120Z,92.90
2018-06-07T02:31:58.453Z,92.70
2018-06-07T02:34:28.741Z,92.80
2018-06-07T02:36:59.039Z,92.60
2018-06-07T02:39:29.308Z,92.40
2018-06-07T02:41:59.652Z,92.50
2018-06-07T02:44:29.942Z,92.50
2018-06-07T02:47:00.204Z,92.30
2018-06-07T02:52:00.375Z,92.60
2018-06-07T02:54:30.640Z,92.80
2018-06-07T02:57:00.960Z,92.90
2018-06-07T02:59:31.259Z,92.80
2018-06-07T03:02:01.589Z,92.70
2018-06-07T03:04:31.857Z,92.70
2018-06-07T03:07:02.151Z,92.60
2018-06-07T03:09:32.450Z,92.70
2018-06-07T03:12:02.752Z,92.70
2018-06-07T03:14:33.057Z,92.40
2018-06-07T03:17:03.372Z,92.20
2018-06-07T03:22:03.592Z,92.50
2018-06-07T03:24:33.876Z,92.60
2018-06-07T03:27:04.188Z,92.70
2018-06-07T03:29:34.517Z,93.10
2018-06-07T03:32:04.761Z,93.10
2018-06-07T03:34:35.052Z,93.20
2018-06-07T03:37:05.378Z,93.20
2018-06-07T03:39:35.748Z,93.20
2018-06-07T03:42:06.121Z,92.90
2018-06-07T03:44:36.443Z,93.10
2018-06-07T03:47:06.790Z,93.00
2018-06-07T03:49:37.201Z,93.20
2018-06-07T03:52:07.499Z,93.30
2018-06-07T03:57:08.245Z,93.20
2018-06-07T03:59:38.553Z,93.30
2018-06-07T04:02:08.877Z,93.30
2018-06-07T04:04:39.151Z,93.30
2018-06-07T04:07:09.449Z,93.60
2018-06-07T04:09:39.762Z,93.80
2018-06-07T04:14:39.945Z,94.30
2018-06-07T04:17:10.254Z,94.50
2018-06-07T04:19:40.551Z,94.30
2018-06-07T04:22:10.764Z,94.20
2018-06-07T04:24:41.102Z,94.00
2018-06-07T04:27:11.418Z,93.70
2018-06-07T04:32:11.599Z,93.70
2018-06-07T04:34:41.886Z,93.30
2018-06-07T04:37:12.226Z,93.20
2018-06-07T04:39:42.490Z,93.10
2018-06-07T04:42:12.828Z,93.40
2018-06-07T04:44:43.156Z,93.50
2018-06-07T04:47:13.468Z,93.40
2018-06-07T04:49:43.812Z,93.20
2018-06-07T04:52:14.064Z,92.90
2018-06-07T04:54:44.356Z,92.40
2018-06-07T04:57:14.749Z,92.30
2018-06-07T04:59:45.014Z,92.50
2018-06-07T05:04:45.723Z,92.70
2018-06-07T05:07:16.031Z,92.90
2018-06-07T05:09:46.352Z,93.00
2018-06-07T05:12:16.597Z,93.20
2018-06-07T05:14:46.916Z,93.20
2018-06-07T05:17:17.186Z,93.30
2018-06-07T05:22:17.344Z,93.30
2018-06-07T05:24:47.663Z,93.40
2018-06-07T05:27:17.948Z,93.40
2018-06-07T05:29:48.269Z,93.40
2018-06-07T05:32:18.517Z,93.50
2018-06-07T05:34:48.826Z,93.40
2018-06-07T05:37:19.128Z,93.20
2018-06-07T05:39:49.400Z,93.30
2018-06-07T05:42:19.701Z,93.30
2018-06-07T05:44:50.017Z,93.20
2018-06-07T05:47:20.311Z,92.90
2018-06-07T05:49:50.549Z,92.50
2018-06-07T05:52:20.856Z,92.60
2018-06-07T05:54:51.181Z,92.80
2018-06-07T05:57:21.525Z,92.70
2018-06-07T05:59:51.818Z,92.90
2018-06-07T06:02:22.091Z,92.90
2018-06-07T06:07:22.407Z,92.70
2018-06-07T06:09:52.795Z,92.60
2018-06-07T06:12:23.088Z,92.10
2018-06-07T06:17:23.360Z,92.20
2018-06-07T06:19:53.822Z,92.10
2018-06-07T06:22:24.193Z,92.40
2018-06-07T06:24:54.537Z,92.40
2018-06-07T06:27:24.838Z,91.50
2018-06-07T06:29:55.204Z,91.10
2018-06-07T06:32:25.617Z,91.20
2018-06-07T06:34:55.949Z,90.90
2018-06-07T06:38:55.885Z,90.50
2018-06-07T06:41:26.201Z,90.60
2018-06-07T06:43:56.531Z,90.20
2018-06-07T06:46:26.973Z,90.60
2018-06-07T06:48:57.294Z,89.00
2018-06-07T06:51:27.588Z,89.30
2018-06-07T06:53:57.857Z,87.80
2018-06-07T06:56:28.207Z,88.00
2018-06-07T06:58:58.528Z,88.40
2018-06-07T07:01:28.848Z,88.10
2018-06-07T07:03:59.188Z,87.20
2018-06-07T07:06:29.481Z,87.30
2018-06-07T07:11:30.711Z,85.50
2018-06-07T07:14:01.073Z,85.80
2018-06-07T07:19:01.532Z,87.10
2018-06-07T07:21:31.833Z,84.80
2018-06-07T07:24:02.133Z,84.60
2018-06-07T07:26:32.468Z,84.30
2018-06-07T07:29:02.705Z,82.40
2018-06-07T07:31:33.043Z,82.70
2018-06-07T07:36:33.308Z,82.30
2018-06-07T07:39:03.711Z,83.00
2018-06-07T07:41:33.990Z,84.20
2018-06-07T07:44:04.333Z,83.80
2018-06-07T07:46:34.622Z,82.10
2018-06-07T07:49:04.932Z,80.80
2018-06-07T07:51:35.194Z,81.30
2018-06-07T07:54:05.537Z,79.80
2018-06-07T07:56:35.801Z,79.50
2018-06-07T07:59:06.121Z,79.20
2018-06-07T08:01:36.416Z,78.20
2018-06-07T08:04:07.050Z,78.40
2018-06-07T08:06:37.345Z,78.50
2018-06-07T08:09:07.769Z,76.90
2018-06-07T08:11:38.105Z,77.70
2018-06-07T08:14:08.361Z,78.50
2018-06-07T08:16:38.733Z,78.50
2018-06-07T08:19:08.997Z,80.70
2018-06-07T08:21:39.309Z,80.90
2018-06-07T08:26:39.476Z,79.60
2018-06-07T08:29:09.870Z,79.80
2018-06-07T08:31:40.143Z,81.10
2018-06-07T08:34:10.440Z,81.30
2018-06-07T08:36:40.729Z,81.50
2018-06-07T08:39:11.101Z,80.60
2018-06-07T08:41:41.383Z,78.30
2018-06-07T08:44:11.744Z,75.70
2018-06-07T08:46:42.169Z,76.50
2018-06-07T08:49:12.499Z,75.50
2018-06-07T08:51:42.788Z,75.30
2018-06-07T08:56:42.979Z,75.10
2018-06-07T08:59:13.335Z,74.10
2018-06-07T09:01:43.645Z,71.90
2018-06-07T09:04:13.970Z,73.50
2018-06-07T09:06:44.287Z,71.40
2018-06-07T09:09:14.565Z,72.60
2018-06-07T09:11:44.852Z,75.00
2018-06-07T09:14:15.208Z,72.40
2018-06-07T09:16:45.476Z,70.60
2018-06-07T09:19:15.772Z,72.90
2018-06-07T09:21:46.080Z,71.50
2018-06-07T09:24:16.389Z,72.00
2018-06-07T09:26:46.668Z,67.70
2018-06-07T09:29:16.937Z,66.80
2018-06-07T09:31:47.188Z,69.30
2018-06-07T09:34:17.467Z,71.10
2018-06-07T09:36:47.822Z,65.00
2018-06-07T09:39:18.133Z,66.10
2018-06-07T09:41:48.429Z,66.30
2018-06-07T09:44:18.841Z,66.10
2018-06-07T09:46:49.500Z,68.40
2018-06-07T09:49:19.794Z,66.00
2018-06-07T09:51:50.071Z,67.60
2018-06-07T09:54:20.388Z,69.00
2018-06-07T09:56:50.732Z,68.50
2018-06-07T09:59:21.039Z,68.80
2018-06-07T10:01:51.308Z,67.70
2018-06-07T10:04:21.620Z,66.40
2018-06-07T10:06:51.913Z,63.60
2018-06-07T10:09:22.280Z,66.80
2018-06-07T10:11:52.568Z,64.50
2018-06-07T10:14:22.871Z,64.90
2018-06-07T10:16:53.251Z,63.50
2018-06-07T10:19:23.663Z,62.10
2018-06-07T10:24:23.897Z,58.80
2018-06-07T10:26:54.200Z,60.20
2018-06-07T10:29:24.520Z,59.70
2018-06-07T10:31:54.822Z,59.00
2018-06-07T10:34:25.103Z,59.50
2018-06-07T10:36:55.417Z,59.20
2018-06-07T10:39:25.711Z,59.40
2018-06-07T10:46:55.903Z,58.00
2018-06-07T10:49:26.222Z,58.30
2018-06-07T10:51:56.453Z,57.40
2018-06-07T10:54:26.736Z,56.40
2018-06-07T10:56:57.143Z,54.20
2018-06-07T10:59:27.443Z,53.90
2018-06-07T11:01:57.738Z,53.50
2018-06-07T11:04:28.547Z,53.50
2018-06-07T11:06:58.777Z,53.50
2018-06-07T11:09:29.257Z,52.60
2018-06-07T11:11:59.520Z,51.60
2018-06-07T11:14:29.812Z,51.00
2018-06-07T11:17:00.161Z,48.90
2018-06-07T11:22:00.388Z,51.10
2018-06-07T11:24:30.700Z,50.20
2018-06-07T11:27:01.008Z,49.60
2018-06-07T11:29:31.366Z,46.70
2018-06-07T11:34:31.601Z,48.80
2018-06-07T11:39:31.778Z,52.20
2018-06-07T11:42:02.079Z,51.50
2018-06-07T11:44:32.386Z,50.90
2018-06-07T11:47:02.764Z,50.90
2018-06-07T11:49:33.102Z,52.20
2018-06-07T11:52:03.444Z,53.50
2018-06-07T11:54:33.821Z,52.80
2018-06-07T11:57:04.185Z,54.30
2018-06-07T11:59:34.578Z,55.70
2018-06-07T12:02:05.044Z,56.70
2018-06-07T12:04:35.406Z,57.90
2018-06-07T12:07:05.815Z,57.80
2018-06-07T12:12:06.334Z,54.40
2018-06-07T12:14:36.839Z,53.10
2018-06-07T12:17:07.232Z,51.80
2018-06-07T12:19:37.623Z,49.10
2018-06-07T12:22:07.926Z,48.80
2018-06-07T12:24:38.309Z,45.50
2018-06-07T12:27:08.790Z,46.50
2018-06-07T12:29:39.160Z,46.80
2018-06-07T12:32:09.541Z,49.40
2018-06-07T12:34:39.819Z,50.40
2018-06-07T12:37:10.108Z,51.90
2018-06-07T12:42:10.453Z,49.30
2018-06-07T12:47:10.700Z,49.80
2018-06-07T12:54:40.851Z,45.10
2018-06-07T12:59:41.099Z,41.40
2018-06-07T13:04:41.317Z,42.70
2018-06-07T13:07:11.628Z,42.30
2018-06-07T13:09:41.935Z,42.10
2018-06-07T13:12:12.221Z,41.20
2018-06-07T13:14:42.521Z,39.40
2018-06-07T13:19:42.795Z,36.60
2018-06-07T13:22:13.073Z,38.10
2018-06-07T13:24:43.386Z,37.30
2018-06-07T13:27:13.699Z,38.30
2018-06-07T13:29:44.026Z,37.30
2018-06-07T13:32:14.361Z,36.40
2018-06-07T13:34:44.644Z,36.70
2018-06-07T13:37:14.972Z,35.90
2018-06-07T13:39:45.546Z,37.30
2018-06-07T13:42:15.849Z,38.80
2018-06-07T13:44:46.213Z,37.90
2018-06-07T13:49:46.641Z,37.30
2018-06-07T13:52:17.004Z,36.70
2018-06-07T13:54:47.298Z,37.00
2018-06-07T13:59:48.141Z,36.90
2018-06-07T14:04:48.328Z,38.60
2018-06-07T14:07:18.659Z,37.60
2018-06-07T14:09:48.933Z,36.90
2018-06-07T14:14:49.149Z,38.00
2018-06-07T14:17:19.456Z,36.50
2018-06-07T14:19:49.696Z,37.30
2018-06-07T14:22:19.999Z,37.30
2018-06-07T14:24:50.297Z,37.90
2018-06-07T14:27:20.589Z,36.90
2018-06-07T14:29:50.905Z,36.50
2018-06-07T14:32:21.157Z,37.60
2018-06-07T14:34:51.517Z,37.60
2018-06-07T14:37:21.796Z,36.90
2018-06-07T14:39:52.069Z,36.70
2018-06-07T14:42:22.415Z,35.80
2018-06-07T14:44:52.652Z,36.00
2018-06-07T14:49:52.898Z,36.80
2018-06-07T14:54:53.123Z,35.10
2018-06-07T14:57:23.445Z,34.20
2018-06-07T14:59:53.756Z,35.50
2018-06-07T15:02:24.074Z,34.80
2018-06-07T15:04:54.357Z,34.00
2018-06-07T15:07:24.713Z,34.40
2018-06-07T15:09:55.108Z,33.10
2018-06-07T15:12:25.433Z,33.00
2018-06-07T15:14:55.741Z,33.60
2018-06-07T15:17:26.042Z,34.00
2018-06-07T15:19:56.402Z,34.10
2018-06-07T15:22:26.713Z,33.70
2018-06-07T15:24:57.016Z,34.50
2018-06-07T15:27:27.353Z,36.30
2018-06-07T15:29:57.730Z,38.00
2018-06-07T15:32:28.084Z,35.80
2018-06-07T15:34:58.401Z,36.10
2018-06-07T15:37:28.681Z,35.80
2018-06-07T15:39:59.021Z,36.10
2018-06-07T15:42:29.285Z,38.20
2018-06-07T15:47:29.537Z,40.60
2018-06-07T15:49:59.830Z,41.60
2018-06-07T15:52:30.143Z,42.60
2018-06-07T15:55:00.437Z,44.10
2018-06-07T15:57:30.749Z,46.00
2018-06-07T16:00:01.053Z,47.00
2018-06-07T16:05:01.306Z,48.30
2018-06-07T16:07:31.590Z,49.40
2018-06-07T16:10:01.994Z,50.20
2018-06-07T16:12:32.344Z,50.30
2018-06-07T16:15:02.636Z,50.80
2018-06-07T16:17:33.016Z,51.90
2018-06-07T16:20:03.309Z,52.10
2018-06-07T16:22:33.601Z,52.90
2018-06-07T16:25:03.928Z,54.40
2018-06-07T16:27:34.341Z,53.50
2018-06-07T16:30:05.064Z,53.90
2018-06-07T16:32:35.387Z,53.70
2018-06-07T16:35:05.684Z,54.60
2018-06-07T16:40:05.954Z,57.00
2018-06-07T16:42:36.338Z,57.40
2018-06-07T16:45:06.927Z,56.70
2018-06-07T16:47:37.308Z,57.70
2018-06-07T16:50:07.667Z,58.60
2018-06-07T16:52:37.966Z,58.80
2018-06-07T16:55:08.308Z,60.00
2018-06-07T16:57:38.608Z,60.50
2018-06-07T17:00:08.921Z,59.30
2018-06-07T17:02:39.306Z,57.30
2018-06-07T17:05:09.570Z,56.50
2018-06-07T17:10:10.125Z,57.50
2018-06-07T17:15:10.437Z,59.40
2018-06-07T17:17:40.849Z,59.70
2018-06-07T17:20:11.188Z,59.60
2018-06-07T17:22:41.498Z,58.80
2018-06-07T17:25:11.868Z,58.10
2018-06-07T17:27:42.399Z,58.40
2018-06-07T17:30:12.749Z,59.00
2018-06-07T17:32:43.049Z,59.70
2018-06-07T17:35:13.360Z,59.40
2018-06-07T17:40:13.706Z,62.00
2018-06-07T17:42:44.069Z,63.40
2018-06-07T17:45:14.424Z,64.30
2018-06-07T17:47:44.844Z,64.60
2018-06-07T17:50:15.171Z,65.20
2018-06-07T17:52:45.443Z,66.50
2018-06-07T17:55:15.777Z,67.60
2018-06-07T17:57:46.099Z,67.60
2018-06-07T18:00:16.488Z,68.70
2018-06-07T18:02:46.830Z,68.20
2018-06-07T18:05:17.166Z,68.50
2018-06-07T18:07:47.555Z,69.80
2018-06-07T18:10:17.911Z,70.10
2018-06-07T18:12:48.269Z,71.00
2018-06-07T18:15:18.617Z,71.20
2018-06-07T18:17:48.976Z,71.80
2018-06-07T18:20:19.225Z,72.90
2018-06-07T18:22:49.570Z,73.50
2018-06-07T18:25:19.908Z,73.90
2018-06-07T18:27:51.330Z,74.70
2018-06-07T18:30:21.689Z,75.40
2018-06-07T18:32:52.743Z,76.80
2018-06-07T18:35:22.962Z,76.50
2018-06-07T18:37:53.480Z,76.80
2018-06-07T18:40:23.835Z,76.90
2018-06-07T18:42:54.120Z,77.50
2018-06-07T18:45:24.472Z,77.80
2018-06-07T18:47:54.760Z,78.30
2018-06-07T18:50:25.036Z,78.30
2018-06-07T18:52:55.308Z,78.80
2018-06-07T18:55:25.617Z,78.90
2018-06-07T18:57:55.927Z,79.20
2018-06-07T19:00:26.258Z,79.80
2018-06-07T19:02:56.576Z,79.50
2018-06-07T19:05:26.897Z,79.80
2018-06-07T19:07:57.218Z,79.90
2018-06-07T19:10:27.548Z,80.60
2018-06-07T19:12:57.813Z,80.70
2018-06-07T19:15:28.234Z,81.30
2018-06-07T19:17:58.532Z,81.60
2018-06-07T19:20:34.148Z,82.00
2018-06-07T19:23:04.564Z,82.40
2018-06-07T19:25:40.124Z,82.40
2018-06-07T19:28:10.429Z,82.50
2018-06-07T19:30:40.716Z,82.80
2018-06-07T19:33:16.137Z,82.90
2018-06-07T19:35:46.459Z,82.90
2018-06-07T19:38:16.775Z,83.20
2018-06-07T19:40:52.224Z,83.40
2018-06-07T19:43:22.514Z,83.60
2018-06-07T19:45:52.777Z,83.90
2018-06-07T19:48:23.111Z,84.00
2018-06-07T19:50:53.385Z,84.00
2018-06-07T19:53:23.685Z,84.20
2018-06-07T19:55:54.032Z,84.30
2018-06-07T19:58:24.332Z,84.60
2018-06-07T20:00:54.592Z,85.00
2018-06-07T20:03:24.884Z,85.00
2018-06-07T20:05:55.222Z,85.30
2018-06-07T20:10:55.453Z,86.30
2018-06-07T20:13:25.743Z,85.60
2018-06-07T20:15:56.350Z,85.70
2018-06-07T20:18:26.656Z,85.90
2018-06-07T20:20:56.984Z,86.00
2018-06-07T20:23:27.262Z,86.30
2018-06-07T20:25:57.589Z,86.70
2018-06-07T20:28:27.910Z,87.00
2018-06-07T20:30:58.265Z,86.90
2018-06-07T20:33:28.584Z,86.90
2018-06-07T20:38:28.768Z,87.00
2018-06-07T20:40:59.057Z,86.80
2018-06-07T20:43:29.365Z,87.50
2018-06-07T20:45:59.662Z,87.50
2018-06-07T20:48:29.977Z,87.90
2018-06-07T20:51:00.328Z,88.00
2018-06-07T20:53:30.599Z,87.90
2018-06-07T20:56:00.846Z,88.00
2018-06-07T20:58:31.178Z,88.00
2018-06-07T21:01:01.470Z,87.90
2018-06-07T21:03:31.760Z,88.00
2018-06-07T21:08:31.933Z,88.00
2018-06-07T21:11:02.303Z,88.10
2018-06-07T21:13:32.571Z,87.80
2018-06-07T21:16:02.928Z,87.70
2018-06-07T21:18:33.269Z,87.70
2018-06-07T21:21:03.768Z,87.70
2018-06-07T21:23:34.284Z,87.70
2018-06-07T21:26:04.591Z,88.00
2018-06-07T21:28:34.970Z,88.10
2018-06-07T21:31:05.279Z,88.10
2018-06-07T21:33:35.607Z,88.00
2018-06-07T21:36:09.732Z,88.00
2018-06-07T21:38:40.104Z,88.40
2018-06-07T21:41:10.385Z,88.50
2018-06-07T21:43:40.749Z,88.60
2018-06-07T21:46:11.180Z,88.50
2018-06-07T21:48:42.450Z,88.60
2018-06-07T21:51:12.860Z,88.50
2018-06-07T21:53:43.111Z,88.50
2018-06-07T21:56:13.480Z,88.60
2018-06-07T22:01:13.777Z,88.80
2018-06-07T22:03:44.145Z,88.80
2018-06-07T22:11:14.729Z,89.20
2018-06-07T22:13:45.104Z,89.30
2018-06-07T22:16:15.416Z,89.50
2018-06-07T22:18:45.726Z,89.50
2018-06-07T22:21:16.041Z,89.70
2018-06-07T22:23:46.349Z,89.60
2018-06-07T22:26:16.663Z,89.80
2018-06-07T22:28:47.053Z,89.80
2018-06-07T22:31:17.401Z,89.70
2018-06-07T22:36:17.614Z,89.70
2018-06-07T22:38:47.835Z,90.00
2018-06-07T22:41:18.179Z,89.50
2018-06-07T22:43:48.427Z,89.60
2018-06-07T22:46:18.716Z,90.00
2018-06-07T22:48:49.045Z,89.90
2018-06-07T22:51:19.502Z,90.10
2018-06-07T22:53:49.975Z,90.10
2018-06-07T22:56:20.671Z,90.30
2018-06-07T22:58:51.079Z,90.20
2018-06-07T23:01:21.384Z,90.10
2018-06-07T23:03:51.806Z,90.10
2018-06-07T23:06:22.172Z,90.20
2018-06-07T23:08:52.481Z,90.20
2018-06-07T23:11:22.985Z,90.20
2018-06-07T23:13:53.360Z,90.10
2018-06-07T23:16:23.660Z,89.90
2018-06-07T23:18:55.542Z,90.10
2018-06-07T23:21:27.753Z,90.10
2018-06-07T23:23:58.067Z,90.00
2018-06-07T23:26:28.400Z,90.00
2018-06-07T23:28:58.718Z,90.20
2018-06-07T23:31:28.975Z,90.40
2018-06-07T23:33:59.302Z,90.40
2018-06-07T23:36:29.621Z,90.30
2018-06-07T23:41:29.829Z,90.10
2018-06-07T23:44:00.179Z,90.20
2018-06-07T23:51:30.319Z,90.00
2018-06-07T23:54:00.652Z,89.70
2018-06-07T23:59:00.976Z,89.30
